Englewood, CO (80155)

9:18 AM MDT on October 30, 2014 (GMT -0600)
Sundance Hills | Change Station
CLOSE
Current Station
Personal Weather Station
Location: Greenwood Village, CO
Elevation: 5748 ft
Nearby Weather Stations

Elev 5748 ft 39.61 °N, 104.87 °W | Updated 4 seconds ago

Partly Cloudy
Partly Cloudy
48.3 °F
Feels Like 48 °F
N
1.0
Wind Variable Wind from ESE
Gusts 3.0 mph

Today
High -- | Low -- °F
--% Chance of Precip.
Yesterday
High -- | Low -- °F
Precip. -- in
7:25 AM 6:00 PM
Waxing Crescent, 45% visible
Pressure 30.35 in
Visibility 10.0 miles
Clouds Few 14000 ft
Windchill 48 °F
Dew Point 30 °F
Humidity 49%
Rainfall 0.00 in
Snow Depth Not available.
UV 1.3 out of 12
Pollen 1.20 out of 12
Air Quality Not available.
Flu Activity Not available.
METAR KAPA 301453Z 12004KT 10SM FEW140 07/M02 A3040 RMK AO2 SLP278 ACSL DSNT W T00671017 53016

More Conditions Fewer Conditions

Pressure 30.35 in
Visibility 10.0 miles
Clouds Few 14000 ft
Windchill 48 °F
Dew Point 30 °F
Humidity 49%
Rainfall 0.00 in
Snow Depth Not available.
UV 1.3 out of 12
Pollen 1.20 out of 12
Air Quality Not available.
Flu Activity Not available.
METAR KAPA 301453Z 12004KT 10SM FEW140 07/M02 A3040 RMK AO2 SLP278 ACSL DSNT W T00671017 53016

More Conditions Fewer Conditions

10-Day Weather Forecast

Almanac

Astronomy

Oct. 30, 2014 Rise Set
Actual Time
Civil Twilight
Nautical Twilight
Astronomical Twilight
Moon
Length of Visible Light
Length of Day
Tomorrow will be .
, % of the Moon is Illuminated

Today's Extremes

State Highs State Lows

Community

WunderPhotos

Upload Photos

1,766,387 photos uploaded!

WunderBlogs® & News

Nearby

Air Quality

  Air Quality AQ Index Pollutant
Not available.

Snow Depth

Station Depth Elevation

Earthquake Activity

City Distance Mag. Time & Date
Minimum magnitude displayed is 2.5.

Coastal Water Temperatures

Place Temperature

Nearby Weather Stations